Time;durP1;ratioP1;P1;durP2;ratioP2;P2;SDS_P1;SDS_P2;PMS_P1;PMS_P2;Temp;Humidity;BMP_temperature;BMP_pressure;BME280_temperature;BME280_humidity;BME280_pressure;Samples;Min_cycle;Max_cycle;Signal;HPM_P1;HPM_P2
2021/12/03 00:00:49;;;;;;;42.97;4.90;;;;;;;7.12;100.00;97005.88;5029837;28;20608;-64
2021/12/03 00:03:17;;;;;;;28.70;4.10;;;;;;;7.18;100.00;97009.34;5030809;28;20592;-63
2021/12/03 00:05:44;;;;;;;43.03;5.23;;;;;;;7.00;100.00;97007.97;5029482;28;20656;-63
2021/12/03 00:08:11;;;;;;;32.03;5.03;;;;;;;7.03;100.00;97013.56;5030834;28;20633;-63
2021/12/03 00:10:39;;;;;;;32.07;5.00;;;;;;;7.02;100.00;97016.50;5032871;28;20596;-64
2021/12/03 00:13:07;;;;;;;30.93;5.57;;;;;;;7.02;100.00;97024.44;5032006;28;20612;-63
2021/12/03 00:15:36;;;;;;;36.00;5.40;;;;;;;7.13;100.00;97028.72;5029534;28;20598;-64
2021/12/03 00:18:04;;;;;;;47.40;6.27;;;;;;;7.10;100.00;97031.09;5029641;28;21172;-63
2021/12/03 00:20:35;;;;;;;24.37;4.43;;;;;;;7.08;100.00;97044.66;5032770;28;20636;-64
2021/12/03 00:23:04;;;;;;;20.93;3.97;;;;;;;6.86;100.00;97046.69;5032552;28;20605;-63
2021/12/03 00:25:31;;;;;;;39.13;5.30;;;;;;;6.83;100.00;97052.50;5029242;28;20605;-64
2021/12/03 00:27:58;;;;;;;38.07;5.70;;;;;;;6.88;100.00;97074.56;5029230;28;20593;-63
2021/12/03 00:30:25;;;;;;;39.17;6.37;;;;;;;6.96;100.00;97075.94;5032571;28;20639;-63
2021/12/03 00:32:52;;;;;;;39.10;5.67;;;;;;;7.04;100.00;97075.41;5032611;28;20628;-63
2021/12/03 00:35:19;;;;;;;27.07;5.13;;;;;;;6.96;100.00;97083.88;5030441;28;20609;-63
2021/12/03 00:37:48;;;;;;;28.63;5.07;;;;;;;6.71;100.00;97097.03;5029309;28;20620;-63
2021/12/03 00:40:19;;;;;;;65.43;6.67;;;;;;;6.82;100.00;97096.03;5031019;28;20610;-63
2021/12/03 00:42:45;;;;;;;52.97;5.73;;;;;;;6.98;100.00;97093.19;5032625;28;20593;-63
2021/12/03 00:45:13;;;;;;;23.03;5.17;;;;;;;7.06;100.00;97095.31;5030849;28;20613;-63
2021/12/03 00:47:41;;;;;;;68.67;6.93;;;;;;;7.10;100.00;97087.66;5029097;28;21130;-63
2021/12/03 00:50:11;;;;;;;62.67;8.20;;;;;;;7.13;100.00;97095.09;5029961;28;20625;-63
2021/12/03 00:52:38;;;;;;;31.03;4.93;;;;;;;7.14;100.00;97104.66;5032401;28;20604;-63
2021/12/03 00:55:08;;;;;;;29.93;5.87;;;;;;;7.13;100.00;97097.75;5031840;28;20609;-63
2021/12/03 00:57:35;;;;;;;11.67;4.03;;;;;;;6.87;100.00;97117.28;5029291;28;20621;-63
2021/12/03 01:00:02;;;;;;;28.93;5.40;;;;;;;6.99;100.00;97123.19;5029126;28;20633;-63
2021/12/03 01:02:29;;;;;;;26.53;4.57;;;;;;;7.12;100.00;97133.31;5032342;28;20635;-63
2021/12/03 01:04:56;;;;;;;26.90;5.10;;;;;;;6.99;100.00;97139.13;5032358;28;20620;-63
2021/12/03 01:07:22;;;;;;;18.77;5.30;;;;;;;7.11;100.00;97141.53;5029670;28;20628;-63
2021/12/03 01:09:49;;;;;;;42.40;6.07;;;;;;;6.96;100.00;97142.28;5028933;28;20609;-63
2021/12/03 01:12:18;;;;;;;36.97;6.57;;;;;;;6.98;100.00;97142.81;5028046;28;20610;-63
2021/12/03 01:14:45;;;;;;;19.30;4.77;;;;;;;6.93;100.00;97140.91;5029175;28;20620;-63
2021/12/03 01:17:12;;;;;;;37.13;6.83;;;;;;;6.92;100.00;97142.00;5026922;28;20611;-63
2021/12/03 01:19:38;;;;;;;16.30;5.13;;;;;;;6.93;100.00;97156.06;5025755;28;20601;-63
2021/12/03 01:22:06;;;;;;;12.93;4.90;;;;;;;6.97;100.00;97157.13;5026259;28;20634;-63
2021/12/03 01:24:32;;;;;;;23.10;5.13;;;;;;;7.01;100.00;97151.06;5029169;28;20604;-63
2021/12/03 01:27:00;;;;;;;21.17;5.10;;;;;;;6.97;100.00;97162.44;5028983;28;20605;-63
2021/12/03 01:29:28;;;;;;;14.67;4.60;;;;;;;6.88;100.00;97166.66;5025558;28;21128;-63
2021/12/03 01:31:56;;;;;;;27.07;5.60;;;;;;;6.96;100.00;97177.56;5025471;28;20624;-63
2021/12/03 01:34:24;;;;;;;37.57;6.40;;;;;;;6.89;100.00;97179.66;5028555;28;20616;-63
2021/12/03 01:36:50;;;;;;;42.60;5.53;;;;;;;6.85;100.00;97189.19;5028798;28;20623;-63
2021/12/03 01:39:17;;;;;;;44.70;5.87;;;;;;;6.85;100.00;97199.00;5026605;28;20608;-63
2021/12/03 01:41:44;;;;;;;38.30;5.63;;;;;;;6.81;100.00;97204.03;5024403;28;20609;-63
2021/12/03 01:44:11;;;;;;;32.03;5.50;;;;;;;6.84;100.00;97216.78;5026551;28;20629;-63
2021/12/03 01:46:39;;;;;;;48.13;5.67;;;;;;;6.95;100.00;97205.19;5028633;28;20623;-63
2021/12/03 01:49:09;;;;;;;81.87;7.33;;;;;;;6.93;100.00;97201.19;5028157;28;20601;-63
2021/12/03 01:51:36;;;;;;;8.77;3.30;;;;;;;6.98;100.00;97206.53;5025455;28;20608;-63
2021/12/03 01:54:03;;;;;;;49.43;6.20;;;;;;;7.00;100.00;97188.47;5025167;28;20609;-63
2021/12/03 01:56:29;;;;;;;42.73;6.37;;;;;;;6.97;100.00;97181.81;5028494;28;20628;-63
2021/12/03 01:58:56;;;;;;;14.10;3.97;;;;;;;6.94;100.00;97178.88;5028350;28;20601;-63
2021/12/03 02:01:25;;;;;;;12.53;3.77;;;;;;;6.96;100.00;97182.88;5025544;28;20592;-63
2021/12/03 02:03:56;;;;;;;32.37;4.10;;;;;;;6.91;100.00;97182.06;5024811;28;20649;-63
2021/12/03 02:06:25;;;;;;;15.57;4.77;;;;;;;6.95;100.00;97172.53;5027929;28;20671;-63
2021/12/03 02:08:53;;;;;;;34.90;4.43;;;;;;;6.91;100.00;97179.41;5028310;28;20609;-63
2021/12/03 02:11:20;;;;;;;25.10;4.50;;;;;;;6.88;100.00;97182.56;5025908;28;20601;-63
2021/12/03 02:13:47;;;;;;;34.27;4.97;;;;;;;6.88;100.00;97179.91;5024708;28;20690;-63
2021/12/03 02:16:15;;;;;;;32.63;4.73;;;;;;;6.86;100.00;97192.66;5026429;28;20618;-63
2021/12/03 02:18:42;;;;;;;34.67;4.30;;;;;;;6.80;100.00;97188.38;5028287;28;20617;-63
2021/12/03 02:21:11;;;;;;;23.23;4.00;;;;;;;6.75;100.00;97201.59;5027059;28;20652;-64
2021/12/03 02:23:39;;;;;;;15.93;3.60;;;;;;;6.75;100.00;97206.88;5023573;28;20601;-63
2021/12/03 02:26:06;;;;;;;17.23;3.50;;;;;;;6.78;100.00;97204.53;5025153;28;20625;-63
2021/12/03 02:28:42;;;;;;;51.03;5.20;;;;;;;6.77;100.00;97210.09;5027865;28;20623;-64
2021/12/03 02:31:10;;;;;;;17.83;3.90;;;;;;;6.85;100.00;97212.28;5026907;28;20643;-63
2021/12/03 02:33:37;;;;;;;18.40;4.13;;;;;;;6.82;100.00;97210.13;5024496;28;20613;-63
2021/12/03 02:36:04;;;;;;;29.00;5.33;;;;;;;6.92;100.00;97218.16;5023543;28;20610;-63
2021/12/03 02:38:32;;;;;;;26.20;4.33;;;;;;;6.92;100.00;97218.16;5027744;28;20597;-63
2021/12/03 02:41:00;;;;;;;27.93;3.93;;;;;;;6.95;100.00;97215.00;5027739;28;20620;-63
2021/12/03 02:43:27;;;;;;;30.07;4.30;;;;;;;6.90;100.00;97222.94;5024216;28;20629;-63
2021/12/03 02:45:56;;;;;;;20.23;3.80;;;;;;;6.92;100.00;97228.78;5024104;28;20617;-64
2021/12/03 02:48:22;;;;;;;40.83;4.87;;;;;;;6.60;100.00;97230.66;5026903;28;20597;-63
2021/12/03 02:50:49;;;;;;;40.00;4.80;;;;;;;6.73;100.00;97231.03;5027390;28;21450;-63
2021/12/03 02:53:17;;;;;;;38.53;4.87;;;;;;;6.69;100.00;97232.59;5024289;28;20772;-63
2021/12/03 02:55:45;;;;;;;33.87;4.43;;;;;;;6.70;100.00;97226.25;5023873;28;20626;-63
2021/12/03 02:58:12;;;;;;;32.47;4.90;;;;;;;6.80;100.00;97236.13;5025292;28;20605;-63
2021/12/03 03:00:40;;;;;;;31.07;4.30;;;;;;;6.79;100.00;97247.78;5027385;28;21326;-63
2021/12/03 03:03:08;;;;;;;18.83;3.67;;;;;;;6.80;100.00;97249.41;5026344;28;20815;-63
2021/12/03 03:05:35;;;;;;;33.57;5.10;;;;;;;6.82;100.00;97250.75;5023953;28;20964;-63
2021/12/03 03:08:02;;;;;;;15.53;4.50;;;;;;;6.83;100.00;97246.25;5023930;28;20605;-63
2021/12/03 03:10:31;;;;;;;28.00;5.00;;;;;;;6.85;100.00;97258.19;5023812;28;20602;-63
2021/12/03 03:13:00;;;;;;;19.33;4.33;;;;;;;6.85;100.00;97260.03;5023645;28;20632;-63
2021/12/03 03:15:28;;;;;;;35.20;5.37;;;;;;;6.89;100.00;97250.53;5023802;28;20672;-63
2021/12/03 03:17:55;;;;;;;27.70;5.27;;;;;;;6.91;100.00;97262.47;5023583;28;20605;-63
2021/12/03 03:20:22;;;;;;;8.93;3.90;;;;;;;6.89;100.00;97263.78;5026323;28;20613;-63
2021/12/03 03:22:50;;;;;;;49.37;6.23;;;;;;;6.87;100.00;97263.25;5027023;28;20637;-64
2021/12/03 03:25:19;;;;;;;25.50;5.97;;;;;;;6.90;100.00;97270.72;5024860;28;21430;-63
2021/12/03 03:27:47;;;;;;;39.73;5.90;;;;;;;6.87;100.00;97266.69;5023408;28;20617;-64
2021/12/03 03:30:18;;;;;;;34.10;5.83;;;;;;;6.83;100.00;97259.50;5024883;28;20622;-63
2021/12/03 03:32:45;;;;;;;39.03;6.13;;;;;;;6.83;100.00;97272.78;5026841;28;20625;-63
2021/12/03 03:35:12;;;;;;;30.53;5.57;;;;;;;6.89;100.00;97269.09;5024940;28;20592;-63
2021/12/03 03:37:40;;;;;;;25.13;5.17;;;;;;;6.90;100.00;97276.03;5023466;28;20613;-63
2021/12/03 03:40:08;;;;;;;26.93;6.13;;;;;;;6.91;100.00;97273.09;5023894;28;20605;-63
2021/12/03 03:42:35;;;;;;;52.77;7.73;;;;;;;6.94;100.00;97279.75;5026728;28;20617;-63
2021/12/03 03:45:07;;;;;;;39.33;6.13;;;;;;;6.95;100.00;97282.16;5026448;28;20616;-63
2021/12/03 03:47:35;;;;;;;35.13;6.17;;;;;;;6.94;100.00;97279.75;5023305;28;20614;-63
2021/12/03 03:50:02;;;;;;;37.30;6.67;;;;;;;6.96;100.00;97288.28;5023218;28;20605;-63
2021/12/03 03:52:29;;;;;;;17.30;5.10;;;;;;;6.93;100.00;97294.09;5026442;28;20601;-63
2021/12/03 03:54:56;;;;;;;28.30;4.70;;;;;;;6.61;100.00;97291.44;5026384;28;20647;-63
2021/12/03 03:57:23;;;;;;;21.03;3.63;;;;;;;6.48;100.00;97297.97;5023686;28;20898;-63
2021/12/03 03:59:50;;;;;;;24.60;3.87;;;;;;;6.59;100.00;97288.25;5022883;28;21115;-64
2021/12/03 04:02:17;;;;;;;32.70;4.40;;;;;;;6.63;100.00;97288.53;5024945;28;20610;-63
2021/12/03 04:04:45;;;;;;;37.63;4.17;;;;;;;6.71;100.00;97280.91;5026285;28;20644;-63
2021/12/03 04:07:11;;;;;;;28.77;4.50;;;;;;;6.62;100.00;97298.34;5025163;28;20628;-63
2021/12/03 04:09:38;;;;;;;31.83;4.63;;;;;;;6.49;100.00;97298.75;5023104;28;20601;-64
2021/12/03 04:12:05;;;;;;;30.20;4.33;;;;;;;6.47;100.00;97303.50;5023240;28;20617;-63
2021/12/03 04:14:32;;;;;;;27.23;3.73;;;;;;;6.63;100.00;97299.13;5026348;28;20597;-63
2021/12/03 04:16:59;;;;;;;17.20;2.93;;;;;;;6.66;100.00;97309.25;5026293;28;20597;-63
2021/12/03 04:19:25;;;;;;;23.90;3.27;;;;;;;6.63;100.00;97310.56;5023317;28;20610;-64
2021/12/03 04:21:53;;;;;;;27.93;3.50;;;;;;;6.67;100.00;97297.59;5022777;28;20649;-63
2021/12/03 04:24:20;;;;;;;29.30;3.30;;;;;;;6.67;100.00;97308.19;5025358;28;20606;-63
2021/12/03 04:26:47;;;;;;;32.30;3.37;;;;;;;6.67;100.00;97321.47;5026297;28;20605;-63
2021/12/03 04:29:13;;;;;;;17.90;3.20;;;;;;;6.65;100.00;97328.88;5024618;28;20597;-63
2021/12/03 04:31:40;;;;;;;36.57;4.20;;;;;;;6.63;100.00;97326.47;5022843;28;20590;-63
2021/12/03 04:34:07;;;;;;;20.87;3.63;;;;;;;6.67;100.00;97330.22;5023370;28;20625;-63
2021/12/03 04:36:34;;;;;;;28.93;3.33;;;;;;;6.67;100.00;97334.72;5026113;28;20605;-63
2021/12/03 04:39:02;;;;;;;29.97;3.73;;;;;;;6.67;100.00;97332.06;5026063;28;20593;-63
2021/12/03 04:41:29;;;;;;;32.90;4.80;;;;;;;6.70;100.00;97336.88;5014753;28;20617;-64
2021/12/03 04:43:55;;;;;;;14.13;3.17;;;;;;;6.67;100.00;97340.03;5014548;28;20629;-63
2021/12/03 04:46:22;;;;;;;29.43;3.77;;;;;;;6.63;100.00;97347.69;5014831;28;21451;-63
2021/12/03 04:48:49;;;;;;;25.93;4.23;;;;;;;6.54;100.00;97349.19;5018316;28;20614;-63
2021/12/03 04:51:16;;;;;;;11.20;3.30;;;;;;;6.59;100.00;97356.41;5018299;28;20624;-64
2021/12/03 04:53:42;;;;;;;29.77;4.87;;;;;;;6.53;100.00;97362.72;5018249;28;20617;-63
2021/12/03 04:56:10;;;;;;;29.03;4.23;;;;;;;6.52;100.00;97372.53;5018070;28;20625;-63
2021/12/03 04:58:37;;;;;;;18.70;3.40;;;;;;;6.46;100.00;97377.00;5022973;28;20589;-63
2021/12/03 05:01:04;;;;;;;12.87;2.80;;;;;;;6.47;100.00;97373.28;5029137;28;20649;-63
2021/12/03 05:03:31;;;;;;;14.03;2.53;;;;;;;6.36;100.00;97381.38;5026045;28;20625;-63
2021/12/03 05:06:00;;;;;;;31.07;3.40;;;;;;;6.39;100.00;97379.03;5026179;28;20624;-63
2021/12/03 05:08:30;;;;;;;21.37;3.93;;;;;;;6.48;100.00;97384.69;5025936;28;20612;-64
2021/12/03 05:10:58;;;;;;;38.60;4.20;;;;;;;6.34;100.00;97389.59;5025713;28;20637;-63
2021/12/03 05:13:28;;;;;;;21.17;3.10;;;;;;;6.44;100.00;97392.34;5029086;28;20613;-63
2021/12/03 05:15:55;;;;;;;17.57;3.63;;;;;;;6.38;100.00;97397.81;5029238;28;20643;-63
2021/12/03 05:18:23;;;;;;;26.77;3.43;;;;;;;6.37;100.00;97402.34;5026535;28;20604;-63
2021/12/03 05:20:52;;;;;;;45.57;4.27;;;;;;;6.31;100.00;97395.38;5025825;28;20605;-63
2021/12/03 05:23:20;;;;;;;46.00;4.70;;;;;;;6.39;100.00;97405.56;5028146;28;20613;-63
2021/12/03 05:25:47;;;;;;;37.17;4.23;;;;;;;6.35;100.00;97407.09;5029074;28;20888;-63
2021/12/03 05:28:15;;;;;;;14.60;3.00;;;;;;;6.32;100.00;97410.22;5026683;28;20633;-63
2021/12/03 05:30:43;;;;;;;22.73;3.53;;;;;;;6.32;100.00;97412.06;5029116;28;20696;-63
2021/12/03 05:33:10;;;;;;;12.37;2.17;;;;;;;6.35;100.00;97415.03;5027966;28;20601;-63
2021/12/03 05:35:38;;;;;;;17.67;2.83;;;;;;;6.42;100.00;97415.66;5025491;28;20602;-63
2021/12/03 05:38:05;;;;;;;20.73;2.80;;;;;;;6.24;100.00;97415.97;5025827;28;20606;-63
2021/12/03 05:40:32;;;;;;;18.93;3.83;;;;;;;6.42;100.00;97431.56;5028881;28;20617;-63
2021/12/03 05:42:59;;;;;;;36.57;4.10;;;;;;;6.41;100.00;97437.91;5028610;28;20613;-63
2021/12/03 05:45:29;;;;;;;24.17;3.60;;;;;;;6.53;100.00;97440.44;5025551;28;20597;-63
2021/12/03 05:47:58;;;;;;;37.27;4.87;;;;;;;6.49;100.00;97452.59;5025365;28;20613;-63
2021/12/03 05:50:26;;;;;;;18.73;3.00;;;;;;;6.49;100.00;97453.41;5028304;28;20597;-63
2021/12/03 05:52:53;;;;;;;22.20;3.73;;;;;;;6.43;100.00;97459.72;5028648;28;20609;-63
2021/12/03 05:55:21;;;;;;;16.57;3.93;;;;;;;6.50;100.00;97452.34;5026028;28;20687;-63
2021/12/03 05:57:48;;;;;;;56.67;5.33;;;;;;;6.48;100.00;97466.91;5024579;28;20621;-63
2021/12/03 06:00:18;;;;;;;19.47;3.57;;;;;;;6.49;100.00;97471.97;5026861;28;20617;-63
2021/12/03 06:02:45;;;;;;;24.43;3.97;;;;;;;6.47;100.00;97476.72;5028442;28;20609;-63
2021/12/03 06:05:13;;;;;;;28.30;4.20;;;;;;;6.43;100.00;97477.47;5026873;28;20625;-68
2021/12/03 06:07:40;;;;;;;40.70;5.47;;;;;;;6.46;100.00;97479.63;5024941;28;20602;-63
2021/12/03 06:10:08;;;;;;;29.17;3.93;;;;;;;6.48;100.00;97488.94;5025653;28;21337;-63
2021/12/03 06:12:34;;;;;;;22.23;4.07;;;;;;;6.54;100.00;97495.09;5028293;28;20621;-63
2021/12/03 06:15:01;;;;;;;35.47;5.23;;;;;;;6.55;100.00;97499.38;5028114;28;20640;-63
2021/12/03 06:17:28;;;;;;;17.20;3.57;;;;;;;6.59;100.00;97502.34;5016835;28;20598;-63
2021/12/03 06:19:54;;;;;;;37.43;5.00;;;;;;;6.57;100.00;97504.41;5016661;28;20606;-63
2021/12/03 06:22:22;;;;;;;35.47;3.90;;;;;;;6.53;100.00;97510.22;5016608;28;20633;-63
2021/12/03 06:24:49;;;;;;;70.00;6.10;;;;;;;6.58;100.00;97513.97;5016473;28;20724;-63
2021/12/03 06:27:16;;;;;;;26.33;5.07;;;;;;;6.43;100.00;97512.75;5016479;28;20625;-63
2021/12/03 06:29:43;;;;;;;32.63;4.90;;;;;;;6.58;100.00;97520.09;5024589;28;20594;-63
2021/12/03 06:32:10;;;;;;;27.17;4.20;;;;;;;6.45;100.00;97520.44;5025554;28;20614;-63
2021/12/03 06:34:37;;;;;;;44.77;5.57;;;;;;;6.43;100.00;97514.59;5028031;28;20608;-63
2021/12/03 06:37:04;;;;;;;33.73;4.97;;;;;;;6.46;100.00;97519.41;5027532;28;21238;-63
2021/12/03 06:39:32;;;;;;;25.77;5.23;;;;;;;6.42;100.00;97529.72;5024371;28;20613;-63
2021/12/03 06:41:59;;;;;;;64.87;8.93;;;;;;;6.39;100.00;97527.53;5024336;28;20622;-63
2021/12/03 06:44:26;;;;;;;13.83;4.50;;;;;;;6.46;100.00;97532.69;5027365;28;21370;-63
2021/12/03 06:46:53;;;;;;;65.93;12.80;;;;;;;6.33;100.00;97541.78;5027620;28;20702;-63
2021/12/03 06:49:20;;;;;;;23.83;4.03;;;;;;;6.18;100.00;97541.56;5025147;28;20613;-63
2021/12/03 06:51:49;;;;;;;50.80;4.70;;;;;;;6.40;100.00;97545.06;5024171;28;20723;-63
2021/12/03 06:54:24;;;;;;;19.67;4.30;;;;;;;6.44;100.00;97545.38;5025639;28;20610;-63
2021/12/03 06:56:52;;;;;;;48.03;5.23;;;;;;;6.30;100.00;97541.47;5027425;28;20612;-63
2021/12/03 06:59:19;;;;;;;46.20;4.97;;;;;;;6.32;100.00;97548.13;5024997;28;20605;-63
2021/12/03 07:01:46;;;;;;;30.53;6.23;;;;;;;6.46;100.00;97554.69;5023760;28;20641;-63
2021/12/03 07:04:13;;;;;;;46.90;6.30;;;;;;;6.52;100.00;97555.56;5025149;28;20629;-63
2021/12/03 07:06:40;;;;;;;46.57;5.43;;;;;;;6.20;100.00;97563.34;5027213;28;20612;-63
2021/12/03 07:09:07;;;;;;;42.67;6.50;;;;;;;6.05;100.00;97563.13;5025909;28;20604;-63
2021/12/03 07:11:34;;;;;;;24.97;4.20;;;;;;;5.80;100.00;97562.69;5023721;28;20606;-63
2021/12/03 07:14:02;;;;;;;64.33;6.63;;;;;;;5.74;100.00;97574.25;5023574;28;20590;-63
2021/12/03 07:16:29;;;;;;;34.73;5.37;;;;;;;5.82;100.00;97571.19;5023448;28;20680;-64
2021/12/03 07:18:57;;;;;;;65.13;6.70;;;;;;;5.83;100.00;97575.44;5023550;28;20602;-63
2021/12/03 07:21:24;;;;;;;62.60;7.13;;;;;;;6.04;100.00;97574.75;5026472;28;20612;-63
2021/12/03 07:23:51;;;;;;;89.27;8.23;;;;;;;6.13;100.00;97575.16;5026688;28;20612;-63
2021/12/03 07:26:18;;;;;;;21.57;4.67;;;;;;;6.34;100.00;97582.38;5024999;28;20617;-63
2021/12/03 07:28:45;;;;;;;45.90;5.63;;;;;;;6.34;100.00;97582.38;5026869;28;20597;-63
2021/12/03 07:31:14;;;;;;;20.60;5.00;;;;;;;6.47;100.00;97588.13;5025567;28;20605;-63
2021/12/03 07:33:41;;;;;;;40.37;5.20;;;;;;;6.51;100.00;97589.25;5023525;28;20610;-63
2021/12/03 07:36:09;;;;;;;19.10;4.03;;;;;;;6.48;100.00;97592.38;5024193;28;20692;-63
2021/12/03 07:38:37;;;;;;;36.57;5.80;;;;;;;6.51;100.00;97599.06;5026783;28;20613;-63
2021/12/03 07:41:04;;;;;;;43.33;5.57;;;;;;;6.57;100.00;97602.56;5026452;28;20628;-63
2021/12/03 07:43:32;;;;;;;12.57;3.43;;;;;;;6.49;100.00;97603.81;5023398;28;20636;-64
2021/12/03 07:46:00;;;;;;;25.07;4.70;;;;;;;6.47;100.00;97612.00;5023349;28;21228;-63
2021/12/03 07:48:28;;;;;;;65.37;6.97;;;;;;;6.51;100.00;97610.47;5026503;28;20616;-63
2021/12/03 07:50:56;;;;;;;50.07;5.83;;;;;;;6.56;100.00;97606.28;5026567;28;20662;-64
2021/12/03 07:53:23;;;;;;;26.70;4.70;;;;;;;6.55;100.00;97617.94;5023886;28;20759;-63
2021/12/03 07:55:51;;;;;;;15.13;4.53;;;;;;;6.59;100.00;97622.53;5023131;28;20633;-63
2021/12/03 07:58:19;;;;;;;28.57;4.87;;;;;;;6.63;100.00;97623.63;5025253;28;20633;-63
2021/12/03 08:00:46;;;;;;;42.83;5.10;;;;;;;6.64;100.00;97635.84;5026520;28;20601;-64
2021/12/03 08:03:13;;;;;;;21.13;4.70;;;;;;;6.57;100.00;97635.22;5024961;28;20612;-63
2021/12/03 08:05:41;;;;;;;28.87;4.33;;;;;;;6.17;100.00;97631.94;5023239;28;20618;-63
2021/12/03 08:08:08;;;;;;;57.40;6.10;;;;;;;6.06;100.00;97636.31;5023725;28;20597;-63
2021/12/03 08:10:35;;;;;;;13.17;4.47;;;;;;;6.02;100.00;97637.81;5026532;28;21156;-63
2021/12/03 08:13:02;;;;;;;42.37;5.97;;;;;;;6.08;100.00;97644.00;5026579;28;20612;-63
2021/12/03 08:15:28;;;;;;;15.73;3.43;;;;;;;6.06;100.00;97649.56;5014987;28;20640;-63
2021/12/03 08:17:55;;;;;;;21.47;4.67;;;;;;;6.02;100.00;97648.41;5014908;28;20613;-63
2021/12/03 08:20:22;;;;;;;21.80;4.70;;;;;;;6.08;100.00;97651.94;5015100;28;21361;-63
2021/12/03 08:22:50;;;;;;;50.27;5.17;;;;;;;6.01;100.00;97652.09;5018858;28;20609;-63
2021/12/03 08:25:16;;;;;;;22.47;5.37;;;;;;;6.09;100.00;97656.22;5018800;28;20614;-63
2021/12/03 08:27:44;;;;;;;55.17;6.90;;;;;;;6.12;100.00;97653.91;5018893;28;20632;-63
2021/12/03 08:30:13;;;;;;;21.47;4.13;;;;;;;6.14;100.00;97659.75;5018550;28;20605;-63
2021/12/03 08:32:40;;;;;;;61.80;6.90;;;;;;;5.98;100.00;97663.19;5023828;28;20612;-63
2021/12/03 08:35:08;;;;;;;18.63;3.50;;;;;;;6.19;100.00;97662.47;5029443;28;20605;-63
2021/12/03 08:37:34;;;;;;;24.00;5.67;;;;;;;6.25;100.00;97674.00;5026738;28;20610;-63
2021/12/03 08:40:03;;;;;;;26.37;5.73;;;;;;;6.34;100.00;97665.41;5026678;28;20614;-63
2021/12/03 08:42:30;;;;;;;25.37;5.20;;;;;;;6.34;100.00;97661.94;5018586;28;20617;-63
2021/12/03 08:44:58;;;;;;;49.03;6.20;;;;;;;6.49;100.00;97665.63;5018350;28;20610;-63
2021/12/03 08:47:25;;;;;;;11.13;3.67;;;;;;;6.43;100.00;97663.13;5018518;28;21157;-63
2021/12/03 08:49:54;;;;;;;44.43;5.33;;;;;;;6.53;100.00;97665.91;5018346;28;20609;-63
2021/12/03 08:52:29;;;;;;;46.30;6.50;;;;;;;6.62;100.00;97661.03;5018320;28;20621;-63
2021/12/03 08:54:55;;;;;;;57.60;8.03;;;;;;;6.72;100.00;97669.13;5018271;28;20628;-63
2021/12/03 08:57:26;;;;;;;27.93;5.30;;;;;;;6.68;100.00;97665.38;5018721;28;20621;-63
2021/12/03 08:59:55;;;;;;;32.07;5.80;;;;;;;6.75;100.00;97680.03;5026699;28;20621;-63
2021/12/03 09:02:23;;;;;;;45.90;6.87;;;;;;;6.81;100.00;97678.25;5029380;28;20597;-63
2021/12/03 09:04:50;;;;;;;16.60;4.60;;;;;;;6.61;100.00;97677.97;5029009;28;20697;-63
2021/12/03 09:07:16;;;;;;;30.87;5.97;;;;;;;6.70;100.00;97687.94;5027004;28;20643;-63
2021/12/03 09:09:43;;;;;;;33.93;5.60;;;;;;;6.61;100.00;97685.94;5026479;28;20602;-63
2021/12/03 09:12:11;;;;;;;32.87;7.07;;;;;;;6.47;100.00;97693.41;5027513;28;21553;-63
2021/12/03 09:14:41;;;;;;;52.60;7.00;;;;;;;6.41;100.00;97695.19;5029928;28;20609;-63
2021/12/03 09:17:22;;;;;;;22.47;5.20;;;;;;;6.52;100.00;97704.13;5028926;28;20581;-63
2021/12/03 09:19:55;;;;;;;30.20;4.87;;;;;;;6.37;100.00;97703.88;5026218;28;20636;-63
2021/12/03 09:22:30;;;;;;;42.13;7.23;;;;;;;6.47;100.00;97688.91;5028929;28;20622;-63
2021/12/03 09:24:57;;;;;;;52.87;7.20;;;;;;;6.69;100.00;97690.81;5029589;28;20611;-63
2021/12/03 09:27:23;;;;;;;61.43;7.63;;;;;;;6.61;100.00;97692.06;5026642;28;20633;-63
2021/12/03 09:29:54;;;;;;;68.03;8.53;;;;;;;6.67;100.00;97698.25;5025723;28;20617;-63
2021/12/03 09:32:23;;;;;;;43.50;6.33;;;;;;;6.43;100.00;97690.47;5027786;28;20594;-63
2021/12/03 09:34:49;;;;;;;70.50;7.80;;;;;;;6.21;100.00;97702.84;5029466;28;20647;-63
2021/12/03 09:37:17;;;;;;;32.43;6.73;;;;;;;6.58;100.00;97699.69;5027668;28;20609;-63
2021/12/03 09:39:45;;;;;;;33.50;5.90;;;;;;;6.59;100.00;97706.63;5026105;28;20613;-63
2021/12/03 09:42:13;;;;;;;21.43;5.17;;;;;;;6.69;100.00;97704.91;5027280;28;20610;-63
2021/12/03 09:44:40;;;;;;;43.07;7.27;;;;;;;6.30;100.00;97704.03;5029402;28;20604;-63
2021/12/03 09:47:08;;;;;;;17.93;5.60;;;;;;;6.38;100.00;97716.09;5028764;28;20585;-63
2021/12/03 09:49:36;;;;;;;11.23;4.83;;;;;;;6.25;100.00;97721.72;5026026;28;20605;-63
2021/12/03 09:52:11;;;;;;;18.10;4.10;;;;;;;6.17;100.00;97714.94;5026079;28;20594;-63
2021/12/03 09:54:41;;;;;;;28.47;5.57;;;;;;;6.53;100.00;97717.13;5029054;28;20600;-63
2021/12/03 09:57:11;;;;;;;26.83;5.63;;;;;;;6.38;100.00;97710.78;5028412;28;20601;-63
2021/12/03 10:00:04;;;;;;;12.43;4.43;;;;;;;6.46;100.00;97713.84;5025687;28;20602;-63
2021/12/03 10:02:39;;;;;;;60.33;6.73;;;;;;;6.71;100.00;97715.28;5026016;28;20653;-63
2021/12/03 10:05:36;;;;;;;15.60;4.70;;;;;;;6.70;100.00;97703.88;5025829;28;20602;-63
2021/12/03 10:13:45;;;;;;;47.80;6.13;;;;;;;6.33;100.00;97700.09;5025418;28;20645;-63
2021/12/03 10:16:35;;;;;;;31.97;5.13;;;;;;;6.51;100.00;97698.00;5026683;28;20617;-63
2021/12/03 10:19:23;;;;;;;37.00;5.50;;;;;;;6.53;100.00;97695.91;5028556;28;20620;-63
2021/12/03 10:22:08;;;;;;;24.63;4.87;;;;;;;6.50;100.00;97699.03;5017072;28;20720;-63
2021/12/03 10:24:51;;;;;;;19.90;4.17;;;;;;;6.44;100.00;97696.56;5017186;28;20618;-63
2021/12/03 10:33:14;;;;;;;67.63;7.10;;;;;;;6.73;100.00;97684.00;5019338;28;20621;-63
2021/12/03 10:36:12;;;;;;;27.17;5.13;;;;;;;6.82;100.00;97675.38;5016845;28;20605;-63
2021/12/03 10:38:58;;;;;;;57.43;5.77;;;;;;;6.89;100.00;97676.03;5016819;28;20609;-63
2021/12/03 10:41:31;;;;;;;13.00;3.33;;;;;;;6.87;100.00;97662.16;5016805;28;21071;-63
2021/12/03 10:44:14;;;;;;;32.00;5.00;;;;;;;6.67;100.00;97661.09;5016074;28;20621;-63
2021/12/03 10:49:39;;;;;;;41.53;4.70;;;;;;;6.53;100.00;97655.31;5019491;28;20613;-63
2021/12/03 11:39:39;;;;;;;53.83;3.77;;;;;;;6.24;100.00;97661.78;5026445;28;20624;-63
2021/12/03 13:20:57;;;;;;;54.43;4.37;;;;;;;6.33;100.00;97610.75;5026342;28;20625;-63
2021/12/03 14:03:34;;;;;;;32.07;3.90;;;;;;;6.59;100.00;97584.56;5028756;28;20604;-63
2021/12/03 14:38:18;;;;;;;40.97;4.53;;;;;;;6.29;100.00;97601.66;5093137;28;20654;-64
2021/12/03 14:41:04;;;;;;;23.27;3.10;;;;;;;6.21;100.00;97606.56;5095376;28;21460;-62
2021/12/03 14:43:40;;;;;;;27.03;3.93;;;;;;;6.06;100.00;97604.50;5095260;28;20606;-63
2021/12/03 14:46:34;;;;;;;49.13;4.20;;;;;;;5.66;100.00;97606.44;5095775;28;20668;-62
2021/12/03 14:52:14;;;;;;;13.77;2.57;;;;;;;5.69;100.00;97598.00;5084274;28;20618;-63
2021/12/03 14:54:52;;;;;;;38.67;4.10;;;;;;;5.86;100.00;97609.44;5094075;28;20610;-63
2021/12/03 14:57:31;;;;;;;36.47;3.73;;;;;;;5.72;100.00;97613.44;5097084;28;20654;-63
2021/12/03 15:05:49;;;;;;;20.43;3.80;;;;;;;5.69;100.00;97616.56;5090404;28;20657;-64
2021/12/03 15:08:18;;;;;;;25.97;4.07;;;;;;;5.82;100.00;97610.94;5096882;28;20610;-63
2021/12/03 15:19:04;;;;;;;24.53;3.37;;;;;;;5.63;100.00;97591.03;5098254;28;20628;-62
2021/12/03 15:21:51;;;;;;;15.17;3.07;;;;;;;5.56;100.00;97585.88;5094572;28;20613;-63
2021/12/03 15:30:15;;;;;;;40.83;4.67;;;;;;;5.73;100.00;97575.28;5096904;28;20641;-63
2021/12/03 15:32:47;;;;;;;30.50;4.23;;;;;;;5.65;100.00;97584.44;5085683;28;20614;-64
2021/12/03 15:35:17;;;;;;;31.13;4.30;;;;;;;5.65;100.00;97587.09;5085523;28;20618;-63
2021/12/03 15:57:12;;;;;;;58.67;5.83;;;;;;;5.43;100.00;97594.09;5058816;28;20623;-62
2021/12/03 16:05:13;;;;;;;53.23;4.97;;;;;;;5.21;100.00;97583.38;5083236;28;20634;-62
2021/12/03 16:10:30;;;;;;;32.80;4.00;;;;;;;5.23;100.00;97586.59;5079630;28;20618;-62
2021/12/03 16:13:24;;;;;;;23.43;4.23;;;;;;;5.29;100.00;97590.94;5083639;28;20663;-61
2021/12/03 16:43:45;;;;;;;19.93;4.50;;;;;;;3.46;100.00;97596.94;5071132;28;20597;-62